sensor_id;sensor_type;location;lat;lon;timestamp;pressure;altitude;pressure_sealevel;temperature;humidity
53754;BME280;39667;52.274;20.964;2022-12-11T00:02:03;99487.54;;;1.10;72.35
53754;BME280;39667;52.274;20.964;2022-12-11T00:04:30;99482.66;;;1.09;72.11
53754;BME280;39667;52.274;20.964;2022-12-11T00:06:56;99485.14;;;1.01;72.11
53754;BME280;39667;52.274;20.964;2022-12-11T00:09:23;99489.93;;;0.97;72.31
53754;BME280;39667;52.274;20.964;2022-12-11T00:11:49;99490.95;;;0.96;72.39
53754;BME280;39667;52.274;20.964;2022-12-11T00:14:15;99491.45;;;0.93;72.50
53754;BME280;39667;52.274;20.964;2022-12-11T00:16:42;99493.19;;;0.94;72.68
53754;BME280;39667;52.274;20.964;2022-12-11T00:19:08;99495.64;;;0.96;72.57
53754;BME280;39667;52.274;20.964;2022-12-11T00:21:34;99495.13;;;0.85;72.35
53754;BME280;39667;52.274;20.964;2022-12-11T00:24:01;99497.72;;;0.85;72.66
53754;BME280;39667;52.274;20.964;2022-12-11T00:26:27;99500.02;;;0.87;72.73
53754;BME280;39667;52.274;20.964;2022-12-11T00:28:55;99507.57;;;0.93;72.89
53754;BME280;39667;52.274;20.964;2022-12-11T00:31:22;99501.43;;;1.01;72.92
53754;BME280;39667;52.274;20.964;2022-12-11T00:33:49;99498.73;;;1.05;72.79
53754;BME280;39667;52.274;20.964;2022-12-11T00:36:22;99497.25;;;0.98;72.25
53754;BME280;39667;52.274;20.964;2022-12-11T00:38:49;99494.88;;;0.91;72.55
53754;BME280;39667;52.274;20.964;2022-12-11T00:41:16;99493.36;;;0.93;72.87
53754;BME280;39667;52.274;20.964;2022-12-11T00:43:44;99493.09;;;1.00;72.88
53754;BME280;39667;52.274;20.964;2022-12-11T00:46:10;99489.12;;;1.01;72.63
53754;BME280;39667;52.274;20.964;2022-12-11T00:48:38;99484.23;;;0.97;72.35
53754;BME280;39667;52.274;20.964;2022-12-11T00:51:05;99484.17;;;0.94;72.44
53754;BME280;39667;52.274;20.964;2022-12-11T00:53:31;99484.09;;;1.00;72.70
53754;BME280;39667;52.274;20.964;2022-12-11T00:55:58;99483.57;;;1.00;72.47
53754;BME280;39667;52.274;20.964;2022-12-11T00:58:24;99486.27;;;0.95;72.33
53754;BME280;39667;52.274;20.964;2022-12-11T01:00:51;99486.20;;;0.90;72.26
53754;BME280;39667;52.274;20.964;2022-12-11T01:03:18;99490.05;;;0.82;72.10
53754;BME280;39667;52.274;20.964;2022-12-11T01:05:52;99488.27;;;0.67;72.15
53754;BME280;39667;52.274;20.964;2022-12-11T01:08:19;99495.58;;;0.59;72.54
53754;BME280;39667;52.274;20.964;2022-12-11T01:10:46;99496.78;;;0.59;72.60
53754;BME280;39667;52.274;20.964;2022-12-11T01:13:12;99499.98;;;0.53;72.72
53754;BME280;39667;52.274;20.964;2022-12-11T01:15:43;99501.05;;;0.55;72.68
53754;BME280;39667;52.274;20.964;2022-12-11T01:18:12;99497.09;;;0.57;72.65
53754;BME280;39667;52.274;20.964;2022-12-11T01:20:39;99495.12;;;0.53;72.36
53754;BME280;39667;52.274;20.964;2022-12-11T01:23:09;99493.25;;;0.54;72.74
53754;BME280;39667;52.274;20.964;2022-12-11T01:25:37;99487.45;;;0.61;72.77
53754;BME280;39667;52.274;20.964;2022-12-11T01:28:05;99478.70;;;0.66;72.60
53754;BME280;39667;52.274;20.964;2022-12-11T01:30:32;99472.84;;;0.67;72.49
53754;BME280;39667;52.274;20.964;2022-12-11T01:32:59;99476.09;;;0.64;72.30
53754;BME280;39667;52.274;20.964;2022-12-11T01:35:26;99468.13;;;0.65;72.21
53754;BME280;39667;52.274;20.964;2022-12-11T01:37:54;99463.48;;;0.68;72.27
53754;BME280;39667;52.274;20.964;2022-12-11T01:40:21;99451.96;;;0.63;71.87
53754;BME280;39667;52.274;20.964;2022-12-11T01:42:48;99445.14;;;0.59;72.15
53754;BME280;39667;52.274;20.964;2022-12-11T01:48:15;99441.46;;;0.57;72.19
53754;BME280;39667;52.274;20.964;2022-12-11T01:50:45;99436.85;;;0.60;71.98
53754;BME280;39667;52.274;20.964;2022-12-11T01:53:17;99430.64;;;0.62;71.97
53754;BME280;39667;52.274;20.964;2022-12-11T01:55:46;99432.64;;;0.68;72.05
53754;BME280;39667;52.274;20.964;2022-12-11T01:58:16;99430.64;;;0.72;71.80
53754;BME280;39667;52.274;20.964;2022-12-11T02:00:43;99428.06;;;0.74;71.61
53754;BME280;39667;52.274;20.964;2022-12-11T02:03:10;99433.64;;;0.76;71.48
53754;BME280;39667;52.274;20.964;2022-12-11T02:05:36;99428.35;;;0.70;71.17
53754;BME280;39667;52.274;20.964;2022-12-11T02:08:04;99426.19;;;0.65;71.31
53754;BME280;39667;52.274;20.964;2022-12-11T02:10:47;99421.13;;;0.63;71.29
53754;BME280;39667;52.274;20.964;2022-12-11T02:18:27;99408.67;;;0.53;71.38
53754;BME280;39667;52.274;20.964;2022-12-11T02:21:07;99409.70;;;0.53;71.46
53754;BME280;39667;52.274;20.964;2022-12-11T02:29:50;99406.70;;;0.60;71.58
53754;BME280;39667;52.274;20.964;2022-12-11T02:32:25;99403.20;;;0.58;71.53
53754;BME280;39667;52.274;20.964;2022-12-11T02:35:02;99408.58;;;0.58;71.62
53754;BME280;39667;52.274;20.964;2022-12-11T02:37:31;99406.69;;;0.60;71.66
53754;BME280;39667;52.274;20.964;2022-12-11T02:40:02;99405.86;;;0.62;71.74
53754;BME280;39667;52.274;20.964;2022-12-11T02:42:32;99404.27;;;0.60;71.49
53754;BME280;39667;52.274;20.964;2022-12-11T02:45:00;99397.45;;;0.57;71.63
53754;BME280;39667;52.274;20.964;2022-12-11T02:47:29;99394.35;;;0.57;71.56
53754;BME280;39667;52.274;20.964;2022-12-11T02:49:59;99390.83;;;0.53;71.35
53754;BME280;39667;52.274;20.964;2022-12-11T02:52:29;99385.60;;;0.52;71.57
53754;BME280;39667;52.274;20.964;2022-12-11T02:54:58;99385.48;;;0.44;71.33
53754;BME280;39667;52.274;20.964;2022-12-11T02:57:41;99385.64;;;0.43;71.90
53754;BME280;39667;52.274;20.964;2022-12-11T03:00:09;99387.75;;;0.45;72.01
53754;BME280;39667;52.274;20.964;2022-12-11T03:02:37;99394.95;;;0.51;72.21
53754;BME280;39667;52.274;20.964;2022-12-11T03:05:04;99393.95;;;0.54;72.09
53754;BME280;39667;52.274;20.964;2022-12-11T03:07:33;99391.76;;;0.58;72.11
53754;BME280;39667;52.274;20.964;2022-12-11T03:10:01;99393.67;;;0.59;71.81
53754;BME280;39667;52.274;20.964;2022-12-11T03:12:30;99395.67;;;0.53;71.74
53754;BME280;39667;52.274;20.964;2022-12-11T03:14:59;99401.52;;;0.50;71.97
53754;BME280;39667;52.274;20.964;2022-12-11T03:17:48;99401.52;;;0.50;72.15
53754;BME280;39667;52.274;20.964;2022-12-11T03:20:38;99396.70;;;0.52;71.87
53754;BME280;39667;52.274;20.964;2022-12-11T03:23:31;99396.77;;;0.46;71.98
53754;BME280;39667;52.274;20.964;2022-12-11T03:26:11;99396.05;;;0.44;71.92
53754;BME280;39667;52.274;20.964;2022-12-11T03:29:22;99394.52;;;0.45;71.96
53754;BME280;39667;52.274;20.964;2022-12-11T03:32:03;99396.69;;;0.40;71.83
53754;BME280;39667;52.274;20.964;2022-12-11T03:34:41;99404.91;;;0.35;71.85
53754;BME280;39667;52.274;20.964;2022-12-11T03:37:11;99408.00;;;0.33;72.03
53754;BME280;39667;52.274;20.964;2022-12-11T03:39:42;99408.58;;;0.26;71.95
53754;BME280;39667;52.274;20.964;2022-12-11T03:42:12;99404.44;;;0.28;72.19
53754;BME280;39667;52.274;20.964;2022-12-11T03:44:41;99405.32;;;0.28;72.32
53754;BME280;39667;52.274;20.964;2022-12-11T03:47:09;99406.39;;;0.30;72.23
53754;BME280;39667;52.274;20.964;2022-12-11T03:49:39;99406.66;;;0.25;71.91
53754;BME280;39667;52.274;20.964;2022-12-11T03:52:09;99404.84;;;0.21;71.88
53754;BME280;39667;52.274;20.964;2022-12-11T03:54:37;99406.29;;;0.23;72.20
53754;BME280;39667;52.274;20.964;2022-12-11T03:57:06;99406.91;;;0.30;72.21
53754;BME280;39667;52.274;20.964;2022-12-11T03:59:33;99407.30;;;0.33;71.95
53754;BME280;39667;52.274;20.964;2022-12-11T04:01:59;99406.08;;;0.22;71.52
53754;BME280;39667;52.274;20.964;2022-12-11T04:04:25;99406.88;;;0.18;72.02
53754;BME280;39667;52.274;20.964;2022-12-11T04:06:51;99399.55;;;0.24;72.32
53754;BME280;39667;52.274;20.964;2022-12-11T04:09:17;99393.08;;;0.30;72.02
53754;BME280;39667;52.274;20.964;2022-12-11T04:11:43;99388.06;;;0.32;72.10
53754;BME280;39667;52.274;20.964;2022-12-11T04:14:11;99382.40;;;0.36;72.12
53754;BME280;39667;52.274;20.964;2022-12-11T04:16:59;99380.69;;;0.36;71.76
53754;BME280;39667;52.274;20.964;2022-12-11T04:19:26;99375.40;;;0.31;71.51
53754;BME280;39667;52.274;20.964;2022-12-11T04:22:13;99374.80;;;0.15;71.14
53754;BME280;39667;52.274;20.964;2022-12-11T04:24:58;99375.33;;;0.05;71.80
53754;BME280;39667;52.274;20.964;2022-12-11T04:27:26;99373.98;;;0.08;71.97
53754;BME280;39667;52.274;20.964;2022-12-11T04:30:19;99375.98;;;0.03;71.60
53754;BME280;39667;52.274;20.964;2022-12-11T04:33:05;99374.66;;;-0.04;71.70
53754;BME280;39667;52.274;20.964;2022-12-11T04:35:31;99372.19;;;-0.07;71.53
53754;BME280;39667;52.274;20.964;2022-12-11T04:37:58;99376.11;;;-0.10;71.72
53754;BME280;39667;52.274;20.964;2022-12-11T04:40:24;99376.26;;;-0.11;71.64
53754;BME280;39667;52.274;20.964;2022-12-11T04:42:50;99372.66;;;-0.08;71.99
53754;BME280;39667;52.274;20.964;2022-12-11T04:45:17;99370.31;;;-0.05;71.66
53754;BME280;39667;52.274;20.964;2022-12-11T04:47:43;99368.23;;;-0.05;71.85
53754;BME280;39667;52.274;20.964;2022-12-11T04:50:11;99371.23;;;-0.02;71.92
53754;BME280;39667;52.274;20.964;2022-12-11T04:52:37;99367.89;;;-0.05;71.58
53754;BME280;39667;52.274;20.964;2022-12-11T04:55:05;99366.49;;;-0.15;71.39
53754;BME280;39667;52.274;20.964;2022-12-11T04:57:31;99365.95;;;-0.17;71.94
53754;BME280;39667;52.274;20.964;2022-12-11T04:59:57;99360.52;;;-0.11;72.03
53754;BME280;39667;52.274;20.964;2022-12-11T05:02:25;99355.92;;;-0.06;71.89
53754;BME280;39667;52.274;20.964;2022-12-11T05:04:51;99357.63;;;-0.07;71.98
53754;BME280;39667;52.274;20.964;2022-12-11T05:07:18;99348.20;;;-0.02;72.19
53754;BME280;39667;52.274;20.964;2022-12-11T05:09:44;99342.06;;;0.04;72.20
53754;BME280;39667;52.274;20.964;2022-12-11T05:12:10;99333.66;;;0.09;72.11
53754;BME280;39667;52.274;20.964;2022-12-11T05:14:37;99331.92;;;0.08;71.81
53754;BME280;39667;52.274;20.964;2022-12-11T05:17:03;99328.15;;;0.00;71.79
53754;BME280;39667;52.274;20.964;2022-12-11T05:19:29;99323.23;;;-0.04;71.73
53754;BME280;39667;52.274;20.964;2022-12-11T05:21:55;99318.20;;;-0.05;72.02
53754;BME280;39667;52.274;20.964;2022-12-11T05:24:22;99316.27;;;-0.07;71.98
53754;BME280;39667;52.274;20.964;2022-12-11T05:26:49;99308.52;;;-0.04;72.14
53754;BME280;39667;52.274;20.964;2022-12-11T05:29:15;99308.30;;;0.03;72.12
53754;BME280;39667;52.274;20.964;2022-12-11T05:31:41;99306.83;;;0.09;72.10
53754;BME280;39667;52.274;20.964;2022-12-11T05:34:07;99304.13;;;0.14;72.02
53754;BME280;39667;52.274;20.964;2022-12-11T05:36:33;99301.05;;;0.15;71.93
53754;BME280;39667;52.274;20.964;2022-12-11T05:39:02;99300.27;;;0.10;71.63
53754;BME280;39667;52.274;20.964;2022-12-11T05:41:30;99298.95;;;0.04;72.00
53754;BME280;39667;52.274;20.964;2022-12-11T05:43:57;99298.52;;;-0.03;72.00
53754;BME280;39667;52.274;20.964;2022-12-11T05:46:26;99294.55;;;-0.02;72.31
53754;BME280;39667;52.274;20.964;2022-12-11T05:49:00;99288.70;;;0.01;72.39
53754;BME280;39667;52.274;20.964;2022-12-11T05:51:27;99286.77;;;0.01;71.93
53754;BME280;39667;52.274;20.964;2022-12-11T05:53:55;99287.68;;;-0.19;71.74
53754;BME280;39667;52.274;20.964;2022-12-11T05:56:32;99285.19;;;-0.23;72.45
53754;BME280;39667;52.274;20.964;2022-12-11T05:58:59;99283.54;;;-0.19;72.62
53754;BME280;39667;52.274;20.964;2022-12-11T06:01:29;99280.29;;;-0.17;72.57
53754;BME280;39667;52.274;20.964;2022-12-11T06:03:57;99280.30;;;-0.16;72.91
53754;BME280;39667;52.274;20.964;2022-12-11T06:06:25;99278.44;;;-0.13;72.78
53754;BME280;39667;52.274;20.964;2022-12-11T06:08:53;99280.66;;;-0.16;72.55
53754;BME280;39667;52.274;20.964;2022-12-11T06:11:21;99279.98;;;-0.24;72.36
53754;BME280;39667;52.274;20.964;2022-12-11T06:13:50;99282.92;;;-0.25;72.83
53754;BME280;39667;52.274;20.964;2022-12-11T06:16:17;99280.05;;;-0.20;72.90
53754;BME280;39667;52.274;20.964;2022-12-11T06:18:44;99284.35;;;-0.22;72.69
53754;BME280;39667;52.274;20.964;2022-12-11T06:21:21;99283.63;;;-0.24;72.92
53754;BME280;39667;52.274;20.964;2022-12-11T06:23:50;99283.64;;;-0.23;72.95
53754;BME280;39667;52.274;20.964;2022-12-11T06:26:17;99281.40;;;-0.22;72.53
53754;BME280;39667;52.274;20.964;2022-12-11T06:28:45;99286.04;;;-0.24;72.68
53754;BME280;39667;52.274;20.964;2022-12-11T06:31:12;99293.52;;;-0.22;72.85
53754;BME280;39667;52.274;20.964;2022-12-11T06:33:41;99292.72;;;-0.19;72.88
53754;BME280;39667;52.274;20.964;2022-12-11T06:36:14;99290.48;;;-0.18;72.92
53754;BME280;39667;52.274;20.964;2022-12-11T06:38:58;99292.54;;;-0.19;72.85
53754;BME280;39667;52.274;20.964;2022-12-11T06:41:24;99287.70;;;-0.18;72.87
53754;BME280;39667;52.274;20.964;2022-12-11T06:43:51;99289.38;;;-0.21;72.73
53754;BME280;39667;52.274;20.964;2022-12-11T06:46:18;99288.82;;;-0.23;72.71
53754;BME280;39667;52.274;20.964;2022-12-11T06:48:45;99287.35;;;-0.29;72.67
53754;BME280;39667;52.274;20.964;2022-12-11T06:51:15;99290.48;;;-0.27;72.73
53754;BME280;39667;52.274;20.964;2022-12-11T06:53:43;99291.91;;;-0.25;72.64
53754;BME280;39667;52.274;20.964;2022-12-11T06:56:14;99295.91;;;-0.24;72.73
53754;BME280;39667;52.274;20.964;2022-12-11T06:58:41;99294.30;;;-0.27;72.16
53754;BME280;39667;52.274;20.964;2022-12-11T07:01:20;99296.32;;;-0.31;72.64
53754;BME280;39667;52.274;20.964;2022-12-11T07:03:48;99297.59;;;-0.27;72.65
53754;BME280;39667;52.274;20.964;2022-12-11T07:06:15;99290.88;;;-0.24;72.45
53754;BME280;39667;52.274;20.964;2022-12-11T07:08:41;99290.50;;;-0.27;72.47
53754;BME280;39667;52.274;20.964;2022-12-11T07:11:13;99290.06;;;-0.32;72.22
53754;BME280;39667;52.274;20.964;2022-12-11T07:13:40;99290.15;;;-0.37;72.30
53754;BME280;39667;52.274;20.964;2022-12-11T07:16:11;99289.80;;;-0.38;72.50
53754;BME280;39667;52.274;20.964;2022-12-11T07:18:40;99284.16;;;-0.43;71.82
53754;BME280;39667;52.274;20.964;2022-12-11T07:21:07;99287.67;;;-0.50;72.21
53754;BME280;39667;52.274;20.964;2022-12-11T07:23:34;99284.73;;;-0.50;71.94
53754;BME280;39667;52.274;20.964;2022-12-11T07:26:05;99280.16;;;-0.64;72.15
53754;BME280;39667;52.274;20.964;2022-12-11T07:28:33;99277.31;;;-0.59;72.58
53754;BME280;39667;52.274;20.964;2022-12-11T07:31:19;99276.02;;;-0.54;72.27
53754;BME280;39667;52.274;20.964;2022-12-11T07:33:47;99273.55;;;-0.67;72.06
53754;BME280;39667;52.274;20.964;2022-12-11T07:36:18;99264.66;;;-0.69;72.07
53754;BME280;39667;52.274;20.964;2022-12-11T07:38:44;99261.84;;;-0.73;72.12
53754;BME280;39667;52.274;20.964;2022-12-11T07:41:13;99259.77;;;-0.73;72.30
53754;BME280;39667;52.274;20.964;2022-12-11T07:43:41;99257.68;;;-0.73;71.95
53754;BME280;39667;52.274;20.964;2022-12-11T07:46:13;99260.44;;;-0.84;72.01
53754;BME280;39667;52.274;20.964;2022-12-11T07:48:42;99259.41;;;-0.82;72.50
53754;BME280;39667;52.274;20.964;2022-12-11T07:51:10;99257.88;;;-0.73;72.70
53754;BME280;39667;52.274;20.964;2022-12-11T07:53:43;99253.34;;;-0.65;72.38
53754;BME280;39667;52.274;20.964;2022-12-11T07:56:10;99248.66;;;-0.66;72.14
53754;BME280;39667;52.274;20.964;2022-12-11T07:58:37;99246.15;;;-0.71;71.52
53754;BME280;39667;52.274;20.964;2022-12-11T08:01:05;99244.17;;;-0.85;71.79
53754;BME280;39667;52.274;20.964;2022-12-11T08:03:31;99246.28;;;-0.83;72.33
53754;BME280;39667;52.274;20.964;2022-12-11T08:05:58;99246.88;;;-0.79;72.14
53754;BME280;39667;52.274;20.964;2022-12-11T08:08:24;99248.79;;;-0.78;72.05
53754;BME280;39667;52.274;20.964;2022-12-11T08:10:51;99251.42;;;-0.76;72.18
53754;BME280;39667;52.274;20.964;2022-12-11T08:13:17;99252.02;;;-0.71;72.10
53754;BME280;39667;52.274;20.964;2022-12-11T08:15:43;99252.52;;;-0.72;71.95
53754;BME280;39667;52.274;20.964;2022-12-11T08:18:12;99245.86;;;-0.77;71.44
53754;BME280;39667;52.274;20.964;2022-12-11T08:20:39;99244.65;;;-0.87;71.72
53754;BME280;39667;52.274;20.964;2022-12-11T08:23:06;99242.42;;;-0.86;71.97
53754;BME280;39667;52.274;20.964;2022-12-11T08:25:32;99239.73;;;-0.82;72.06
53754;BME280;39667;52.274;20.964;2022-12-11T08:27:59;99236.37;;;-0.76;71.77
53754;BME280;39667;52.274;20.964;2022-12-11T08:30:25;99233.98;;;-0.84;71.51
53754;BME280;39667;52.274;20.964;2022-12-11T08:32:52;99230.19;;;-0.93;71.31
53754;BME280;39667;52.274;20.964;2022-12-11T08:35:19;99233.09;;;-0.95;71.99
53754;BME280;39667;52.274;20.964;2022-12-11T08:37:45;99232.14;;;-0.91;71.90
53754;BME280;39667;52.274;20.964;2022-12-11T08:40:11;99229.83;;;-0.84;71.94
53754;BME280;39667;52.274;20.964;2022-12-11T08:42:39;99226.90;;;-0.83;71.76
53754;BME280;39667;52.274;20.964;2022-12-11T08:45:06;99221.48;;;-0.87;71.66
53754;BME280;39667;52.274;20.964;2022-12-11T08:47:33;99220.23;;;-0.90;71.83
53754;BME280;39667;52.274;20.964;2022-12-11T08:50:01;99219.20;;;-0.89;71.84
53754;BME280;39667;52.274;20.964;2022-12-11T08:52:27;99223.41;;;-0.95;71.46
53754;BME280;39667;52.274;20.964;2022-12-11T08:54:56;99217.73;;;-1.04;71.59
53754;BME280;39667;52.274;20.964;2022-12-11T08:57:23;99219.56;;;-0.97;72.10
53754;BME280;39667;52.274;20.964;2022-12-11T08:59:49;99218.89;;;-0.96;71.82
53754;BME280;39667;52.274;20.964;2022-12-11T09:02:15;99216.77;;;-0.99;71.64
53754;BME280;39667;52.274;20.964;2022-12-11T09:04:42;99213.36;;;-0.96;71.99
53754;BME280;39667;52.274;20.964;2022-12-11T09:07:09;99215.92;;;-0.88;71.87
53754;BME280;39667;52.274;20.964;2022-12-11T09:09:35;99213.95;;;-0.92;71.47
53754;BME280;39667;52.274;20.964;2022-12-11T09:12:02;99209.28;;;-1.02;71.41
53754;BME280;39667;52.274;20.964;2022-12-11T09:14:29;99200.63;;;-1.03;71.89
53754;BME280;39667;52.274;20.964;2022-12-11T09:16:55;99193.48;;;-0.97;72.04
53754;BME280;39667;52.274;20.964;2022-12-11T09:19:21;99193.11;;;-0.98;71.81
53754;BME280;39667;52.274;20.964;2022-12-11T09:21:49;99193.98;;;-0.97;71.78
53754;BME280;39667;52.274;20.964;2022-12-11T09:24:16;99191.48;;;-1.12;71.21
53754;BME280;39667;52.274;20.964;2022-12-11T09:26:42;99184.23;;;-1.20;71.49
53754;BME280;39667;52.274;20.964;2022-12-11T09:29:09;99181.00;;;-1.27;71.72
53754;BME280;39667;52.274;20.964;2022-12-11T09:31:36;99166.09;;;-1.20;72.32
53754;BME280;39667;52.274;20.964;2022-12-11T09:34:05;99170.71;;;-1.13;72.39
53754;BME280;39667;52.274;20.964;2022-12-11T09:36:33;99169.89;;;-1.01;72.62
53754;BME280;39667;52.274;20.964;2022-12-11T09:39:02;99164.23;;;-0.89;72.35
53754;BME280;39667;52.274;20.964;2022-12-11T09:44:56;99150.24;;;-0.98;71.74
53754;BME280;39667;52.274;20.964;2022-12-11T09:47:37;99145.64;;;-1.05;71.35
53754;BME280;39667;52.274;20.964;2022-12-11T09:55:02;99132.59;;;-1.00;71.97
53754;BME280;39667;52.274;20.964;2022-12-11T10:00:39;99126.23;;;-0.97;71.67
53754;BME280;39667;52.274;20.964;2022-12-11T10:03:48;99117.38;;;-0.89;71.86
53754;BME280;39667;52.274;20.964;2022-12-11T10:06:26;99116.20;;;-0.87;71.82
53754;BME280;39667;52.274;20.964;2022-12-11T10:09:18;99124.64;;;-0.79;71.74
53754;BME280;39667;52.274;20.964;2022-12-11T10:11:57;99125.08;;;-0.72;71.51
53754;BME280;39667;52.274;20.964;2022-12-11T10:17:21;99109.67;;;-0.74;71.63
53754;BME280;39667;52.274;20.964;2022-12-11T10:19:50;99108.13;;;-0.73;71.41
53754;BME280;39667;52.274;20.964;2022-12-11T10:22:23;99111.27;;;-0.71;71.24
53754;BME280;39667;52.274;20.964;2022-12-11T10:25:02;99103.38;;;-0.79;71.24
53754;BME280;39667;52.274;20.964;2022-12-11T10:27:39;99096.77;;;-0.82;71.16
53754;BME280;39667;52.274;20.964;2022-12-11T10:30:23;99094.23;;;-0.88;71.22
53754;BME280;39667;52.274;20.964;2022-12-11T10:35:56;99091.35;;;-1.17;71.30
53754;BME280;39667;52.274;20.964;2022-12-11T10:40:57;99089.67;;;-1.13;72.38
53754;BME280;39667;52.274;20.964;2022-12-11T10:43:35;99089.06;;;-1.08;72.04
53754;BME280;39667;52.274;20.964;2022-12-11T10:46:02;99084.02;;;-1.01;72.25
53754;BME280;39667;52.274;20.964;2022-12-11T10:48:29;99076.09;;;-1.09;71.94
53754;BME280;39667;52.274;20.964;2022-12-11T10:51:05;99077.35;;;-1.16;71.58
53754;BME280;39667;52.274;20.964;2022-12-11T10:53:34;99071.73;;;-1.22;72.11
53754;BME280;39667;52.274;20.964;2022-12-11T10:56:01;99064.10;;;-1.13;72.59
53754;BME280;39667;52.274;20.964;2022-12-11T10:58:29;99057.20;;;-1.03;72.18
53754;BME280;39667;52.274;20.964;2022-12-11T11:01:07;99051.59;;;-0.97;72.06
53754;BME280;39667;52.274;20.964;2022-12-11T11:03:41;99044.02;;;-0.94;71.91
53754;BME280;39667;52.274;20.964;2022-12-11T11:06:19;99040.36;;;-0.96;71.33
53754;BME280;39667;52.274;20.964;2022-12-11T11:08:56;99031.80;;;-1.13;71.40
53754;BME280;39667;52.274;20.964;2022-12-11T11:11:27;99030.98;;;-1.20;71.77
53754;BME280;39667;52.274;20.964;2022-12-11T11:16:30;99025.82;;;-1.29;74.82
53754;BME280;39667;52.274;20.964;2022-12-11T11:18:57;99025.92;;;-1.33;75.03
53754;BME280;39667;52.274;20.964;2022-12-11T11:21:24;99024.68;;;-1.36;74.57
53754;BME280;39667;52.274;20.964;2022-12-11T11:23:53;99017.96;;;-1.45;74.45
53754;BME280;39667;52.274;20.964;2022-12-11T11:26:20;99020.89;;;-1.35;74.88
53754;BME280;39667;52.274;20.964;2022-12-11T11:29:23;99014.86;;;-1.24;74.59
53754;BME280;39667;52.274;20.964;2022-12-11T11:31:50;99015.36;;;-1.14;74.22
53754;BME280;39667;52.274;20.964;2022-12-11T11:34:19;99011.30;;;-1.08;73.84
53754;BME280;39667;52.274;20.964;2022-12-11T11:36:56;99011.12;;;-1.09;73.18
53754;BME280;39667;52.274;20.964;2022-12-11T11:39:36;99006.86;;;-1.16;73.32
53754;BME280;39667;52.274;20.964;2022-12-11T11:42:13;99001.77;;;-1.11;73.44
53754;BME280;39667;52.274;20.964;2022-12-11T11:44:57;99001.67;;;-1.06;73.25
53754;BME280;39667;52.274;20.964;2022-12-11T11:47:36;98996.73;;;-1.01;72.93
53754;BME280;39667;52.274;20.964;2022-12-11T11:50:29;98995.95;;;-1.07;72.65
53754;BME280;39667;52.274;20.964;2022-12-11T11:53:26;98997.61;;;-1.23;77.26
53754;BME280;39667;52.274;20.964;2022-12-11T11:56:18;98995.57;;;-1.31;80.74
53754;BME280;39667;52.274;20.964;2022-12-11T12:01:42;98992.53;;;-1.28;81.12
53754;BME280;39667;52.274;20.964;2022-12-11T12:04:10;98995.02;;;-1.23;81.15
53754;BME280;39667;52.274;20.964;2022-12-11T12:23:18;98988.36;;;-1.29;75.30
53754;BME280;39667;52.274;20.964;2022-12-11T12:28:20;98987.59;;;-1.44;76.21
53754;BME280;39667;52.274;20.964;2022-12-11T12:39:02;98976.47;;;-1.48;75.74
53754;BME280;39667;52.274;20.964;2022-12-11T12:41:39;98972.91;;;-1.54;74.81
53754;BME280;39667;52.274;20.964;2022-12-11T12:49:18;98966.16;;;-1.76;74.87
53754;BME280;39667;52.274;20.964;2022-12-11T12:51:47;98961.50;;;-1.75;74.51
53754;BME280;39667;52.274;20.964;2022-12-11T12:54:17;98958.41;;;-1.74;74.65
53754;BME280;39667;52.274;20.964;2022-12-11T12:56:47;98957.16;;;-1.78;74.19
53754;BME280;39667;52.274;20.964;2022-12-11T12:59:22;98955.66;;;-1.74;74.64
53754;BME280;39667;52.274;20.964;2022-12-11T13:02:00;98953.63;;;-1.71;74.25
53754;BME280;39667;52.274;20.964;2022-12-11T13:04:35;98950.64;;;-1.75;74.24
53754;BME280;39667;52.274;20.964;2022-12-11T13:07:28;98950.77;;;-1.67;74.36
53754;BME280;39667;52.274;20.964;2022-12-11T13:10:39;98955.85;;;-1.63;74.32
53754;BME280;39667;52.274;20.964;2022-12-11T13:18:36;98948.20;;;-1.77;73.39
53754;BME280;39667;52.274;20.964;2022-12-11T13:21:27;98948.09;;;-1.82;73.77
53754;BME280;39667;52.274;20.964;2022-12-11T13:24:09;98949.91;;;-1.87;73.54
53754;BME280;39667;52.274;20.964;2022-12-11T13:26:38;98951.02;;;-1.92;73.74
53754;BME280;39667;52.274;20.964;2022-12-11T13:29:33;98946.98;;;-1.97;73.68
53754;BME280;39667;52.274;20.964;2022-12-11T13:34:54;98949.36;;;-2.09;73.94
53754;BME280;39667;52.274;20.964;2022-12-11T13:37:34;98954.01;;;-2.08;73.78
53754;BME280;39667;52.274;20.964;2022-12-11T13:40:05;98954.54;;;-2.08;74.07
53754;BME280;39667;52.274;20.964;2022-12-11T13:42:37;98955.19;;;-2.10;73.52
53754;BME280;39667;52.274;20.964;2022-12-11T13:45:06;98959.30;;;-2.11;73.99
53754;BME280;39667;52.274;20.964;2022-12-11T13:47:44;98958.21;;;-2.05;73.97
53754;BME280;39667;52.274;20.964;2022-12-11T13:50:24;98958.02;;;-2.06;73.85
53754;BME280;39667;52.274;20.964;2022-12-11T13:52:53;98952.10;;;-1.99;74.34
53754;BME280;39667;52.274;20.964;2022-12-11T13:55:29;98945.19;;;-1.90;74.39
53754;BME280;39667;52.274;20.964;2022-12-11T13:57:56;98942.19;;;-1.85;74.46
53754;BME280;39667;52.274;20.964;2022-12-11T14:00:28;98948.90;;;-1.76;74.37
53754;BME280;39667;52.274;20.964;2022-12-11T14:03:00;98947.91;;;-1.73;73.93
53754;BME280;39667;52.274;20.964;2022-12-11T14:05:33;98942.08;;;-1.80;73.61
53754;BME280;39667;52.274;20.964;2022-12-11T14:08:06;98944.45;;;-1.84;73.41
53754;BME280;39667;52.274;20.964;2022-12-11T14:10:37;98943.55;;;-1.86;73.68
53754;BME280;39667;52.274;20.964;2022-12-11T14:13:12;98940.72;;;-1.90;73.26
53754;BME280;39667;52.274;20.964;2022-12-11T14:15:44;98942.69;;;-2.04;73.32
53754;BME280;39667;52.274;20.964;2022-12-11T14:18:26;98947.69;;;-2.14;73.74
53754;BME280;39667;52.274;20.964;2022-12-11T14:20:58;98943.49;;;-2.17;74.08
53754;BME280;39667;52.274;20.964;2022-12-11T14:23:35;98938.73;;;-2.14;74.09
53754;BME280;39667;52.274;20.964;2022-12-11T14:26:19;98932.00;;;-2.14;74.35
53754;BME280;39667;52.274;20.964;2022-12-11T14:28:47;98927.02;;;-2.13;74.00
53754;BME280;39667;52.274;20.964;2022-12-11T14:31:41;98922.29;;;-2.16;74.19
53754;BME280;39667;52.274;20.964;2022-12-11T14:34:22;98926.40;;;-2.18;74.10